KCKM/CKM METAR and TAF weather

Enter ICAO airport designator
Station Type Date Time Source
KCKM METAR 2022/06/30 13:55 UTC NOAA

KCKM 301355Z AUTO 14005KT 10SM CLR 26/25 A3014 RMK A01


Station Type Date Time Source
KCKM Decoded METAR 2022/06/30 13:55 UTC NOAA

Station name not available
Jun 30, 2022 - 09:55 AM EDT / 2022.06.30 1355 UTC
Wind: from the SE (140 degrees) at 6 MPH (5 KT):0
Visibility: 10 mile(s):0
Sky conditions: clear
Temperature: 78 F (26 C)
Dew Point: 77 F (25 C)
Relative Humidity: 94%
Pressure (altimeter): 30.14 in. Hg (1020 hPa)
ob: KCKM 301355Z AUTO 14005KT 10SM CLR 26/25 A3014 RMK A01
cycle: 14

Station Type Date Time Source
KCKM TAF UTC NOAA

Error!

Example: see airport list